sensor_id;sensor_type;location;lat;lon;timestamp;P1;durP1;ratioP1;P2;durP2;ratioP2
71771;SDS011;59606;52.138;5.424;2023-04-15T00:00:36;10.30;;;4.82;;
71771;SDS011;59606;52.138;5.424;2023-04-15T00:03:03;12.57;;;4.57;;
71771;SDS011;59606;52.138;5.424;2023-04-15T00:05:31;11.00;;;4.50;;
71771;SDS011;59606;52.138;5.424;2023-04-15T00:07:57;10.13;;;4.70;;
71771;SDS011;59606;52.138;5.424;2023-04-15T00:10:24;10.30;;;5.40;;
71771;SDS011;59606;52.138;5.424;2023-04-15T00:12:51;10.07;;;4.45;;
71771;SDS011;59606;52.138;5.424;2023-04-15T00:15:18;8.65;;;4.00;;
71771;SDS011;59606;52.138;5.424;2023-04-15T00:17:45;9.60;;;4.10;;
71771;SDS011;59606;52.138;5.424;2023-04-15T00:20:12;8.20;;;4.40;;
71771;SDS011;59606;52.138;5.424;2023-04-15T00:22:38;11.00;;;5.10;;
71771;SDS011;59606;52.138;5.424;2023-04-15T00:25:05;9.35;;;4.72;;
71771;SDS011;59606;52.138;5.424;2023-04-15T00:27:31;7.03;;;4.00;;
71771;SDS011;59606;52.138;5.424;2023-04-15T00:29:58;7.57;;;3.85;;
71771;SDS011;59606;52.138;5.424;2023-04-15T00:32:24;7.43;;;3.83;;
71771;SDS011;59606;52.138;5.424;2023-04-15T00:34:51;7.70;;;4.05;;
71771;SDS011;59606;52.138;5.424;2023-04-15T00:37:17;8.70;;;4.70;;
71771;SDS011;59606;52.138;5.424;2023-04-15T00:39:44;7.97;;;4.05;;
71771;SDS011;59606;52.138;5.424;2023-04-15T00:42:11;13.73;;;4.13;;
71771;SDS011;59606;52.138;5.424;2023-04-15T00:44:39;8.83;;;4.00;;
71771;SDS011;59606;52.138;5.424;2023-04-15T00:47:06;10.07;;;4.18;;
71771;SDS011;59606;52.138;5.424;2023-04-15T00:49:35;9.27;;;4.53;;
71771;SDS011;59606;52.138;5.424;2023-04-15T00:52:01;7.85;;;4.35;;
71771;SDS011;59606;52.138;5.424;2023-04-15T00:54:28;8.75;;;4.85;;
71771;SDS011;59606;52.138;5.424;2023-04-15T00:56:55;9.67;;;4.10;;
71771;SDS011;59606;52.138;5.424;2023-04-15T00:59:21;9.27;;;4.38;;
71771;SDS011;59606;52.138;5.424;2023-04-15T01:01:48;10.27;;;4.18;;
71771;SDS011;59606;52.138;5.424;2023-04-15T01:04:14;9.77;;;4.40;;
71771;SDS011;59606;52.138;5.424;2023-04-15T01:06:41;10.18;;;3.80;;
71771;SDS011;59606;52.138;5.424;2023-04-15T01:09:08;11.77;;;4.73;;
71771;SDS011;59606;52.138;5.424;2023-04-15T01:11:34;9.55;;;4.13;;
71771;SDS011;59606;52.138;5.424;2023-04-15T01:14:01;8.45;;;4.15;;
71771;SDS011;59606;52.138;5.424;2023-04-15T01:16:28;10.00;;;4.32;;
71771;SDS011;59606;52.138;5.424;2023-04-15T01:18:54;8.45;;;4.10;;
71771;SDS011;59606;52.138;5.424;2023-04-15T01:21:22;9.73;;;4.47;;
71771;SDS011;59606;52.138;5.424;2023-04-15T01:23:48;9.30;;;4.25;;
71771;SDS011;59606;52.138;5.424;2023-04-15T01:26:16;8.65;;;4.55;;
71771;SDS011;59606;52.138;5.424;2023-04-15T01:28:43;8.75;;;4.22;;
71771;SDS011;59606;52.138;5.424;2023-04-15T01:31:11;10.82;;;4.35;;
71771;SDS011;59606;52.138;5.424;2023-04-15T01:33:42;7.27;;;4.10;;
71771;SDS011;59606;52.138;5.424;2023-04-15T01:36:11;8.68;;;4.65;;
71771;SDS011;59606;52.138;5.424;2023-04-15T01:38:38;9.02;;;4.35;;
71771;SDS011;59606;52.138;5.424;2023-04-15T01:41:05;8.65;;;4.57;;
71771;SDS011;59606;52.138;5.424;2023-04-15T01:43:33;9.40;;;4.35;;
71771;SDS011;59606;52.138;5.424;2023-04-15T01:46:02;6.33;;;3.73;;
71771;SDS011;59606;52.138;5.424;2023-04-15T01:48:28;7.70;;;3.88;;
71771;SDS011;59606;52.138;5.424;2023-04-15T01:50:55;11.02;;;4.07;;
71771;SDS011;59606;52.138;5.424;2023-04-15T01:53:23;11.82;;;4.65;;
71771;SDS011;59606;52.138;5.424;2023-04-15T01:55:51;7.63;;;3.92;;
71771;SDS011;59606;52.138;5.424;2023-04-15T01:58:18;9.53;;;4.40;;
71771;SDS011;59606;52.138;5.424;2023-04-15T02:00:44;12.07;;;4.43;;
71771;SDS011;59606;52.138;5.424;2023-04-15T02:03:11;8.40;;;3.85;;
71771;SDS011;59606;52.138;5.424;2023-04-15T02:05:38;12.20;;;4.63;;
71771;SDS011;59606;52.138;5.424;2023-04-15T02:08:04;10.77;;;4.22;;
71771;SDS011;59606;52.138;5.424;2023-04-15T02:10:31;13.63;;;4.40;;
71771;SDS011;59606;52.138;5.424;2023-04-15T02:12:57;8.27;;;4.45;;
71771;SDS011;59606;52.138;5.424;2023-04-15T02:15:24;8.15;;;3.95;;
71771;SDS011;59606;52.138;5.424;2023-04-15T02:17:50;8.40;;;4.15;;
71771;SDS011;59606;52.138;5.424;2023-04-15T02:20:20;6.80;;;3.95;;
71771;SDS011;59606;52.138;5.424;2023-04-15T02:22:50;10.07;;;3.87;;
71771;SDS011;59606;52.138;5.424;2023-04-15T02:25:16;7.28;;;4.18;;
71771;SDS011;59606;52.138;5.424;2023-04-15T02:27:43;11.07;;;4.25;;
71771;SDS011;59606;52.138;5.424;2023-04-15T02:30:09;8.80;;;3.67;;
71771;SDS011;59606;52.138;5.424;2023-04-15T02:32:36;8.52;;;4.32;;
71771;SDS011;59606;52.138;5.424;2023-04-15T02:35:04;7.20;;;3.07;;
71771;SDS011;59606;52.138;5.424;2023-04-15T02:37:32;12.10;;;4.43;;
71771;SDS011;59606;52.138;5.424;2023-04-15T02:40:02;9.70;;;3.92;;
71771;SDS011;59606;52.138;5.424;2023-04-15T02:42:30;6.38;;;3.58;;
71771;SDS011;59606;52.138;5.424;2023-04-15T02:44:57;7.00;;;3.70;;
71771;SDS011;59606;52.138;5.424;2023-04-15T02:47:24;7.90;;;3.67;;
71771;SDS011;59606;52.138;5.424;2023-04-15T02:49:51;8.00;;;3.67;;
71771;SDS011;59606;52.138;5.424;2023-04-15T02:52:17;6.55;;;3.35;;
71771;SDS011;59606;52.138;5.424;2023-04-15T02:54:44;9.30;;;3.65;;
71771;SDS011;59606;52.138;5.424;2023-04-15T02:57:11;10.63;;;4.55;;
71771;SDS011;59606;52.138;5.424;2023-04-15T02:59:38;10.33;;;4.03;;
71771;SDS011;59606;52.138;5.424;2023-04-15T03:02:04;9.95;;;3.80;;
71771;SDS011;59606;52.138;5.424;2023-04-15T03:04:33;9.65;;;4.25;;
71771;SDS011;59606;52.138;5.424;2023-04-15T03:07:00;7.05;;;3.50;;
71771;SDS011;59606;52.138;5.424;2023-04-15T03:09:27;7.00;;;3.50;;
71771;SDS011;59606;52.138;5.424;2023-04-15T03:11:53;9.73;;;4.10;;
71771;SDS011;59606;52.138;5.424;2023-04-15T03:14:20;10.25;;;4.05;;
71771;SDS011;59606;52.138;5.424;2023-04-15T03:16:48;8.18;;;3.70;;
71771;SDS011;59606;52.138;5.424;2023-04-15T03:19:17;7.97;;;3.55;;
71771;SDS011;59606;52.138;5.424;2023-04-15T03:21:43;11.25;;;4.35;;
71771;SDS011;59606;52.138;5.424;2023-04-15T03:24:10;13.47;;;4.13;;
71771;SDS011;59606;52.138;5.424;2023-04-15T03:26:36;9.25;;;3.90;;
71771;SDS011;59606;52.138;5.424;2023-04-15T03:29:03;7.75;;;4.03;;
71771;SDS011;59606;52.138;5.424;2023-04-15T03:31:29;8.80;;;4.07;;
71771;SDS011;59606;52.138;5.424;2023-04-15T03:33:56;10.60;;;4.20;;
71771;SDS011;59606;52.138;5.424;2023-04-15T03:36:22;8.57;;;3.70;;
71771;SDS011;59606;52.138;5.424;2023-04-15T03:38:49;15.57;;;4.28;;
71771;SDS011;59606;52.138;5.424;2023-04-15T03:41:16;9.57;;;4.57;;
71771;SDS011;59606;52.138;5.424;2023-04-15T03:43:42;11.93;;;4.10;;
71771;SDS011;59606;52.138;5.424;2023-04-15T03:46:09;9.07;;;4.20;;
71771;SDS011;59606;52.138;5.424;2023-04-15T03:48:35;7.37;;;3.67;;
71771;SDS011;59606;52.138;5.424;2023-04-15T03:51:02;9.07;;;3.95;;
71771;SDS011;59606;52.138;5.424;2023-04-15T03:53:28;9.02;;;4.20;;
71771;SDS011;59606;52.138;5.424;2023-04-15T03:55:55;8.07;;;4.00;;
71771;SDS011;59606;52.138;5.424;2023-04-15T03:58:21;11.02;;;3.97;;
71771;SDS011;59606;52.138;5.424;2023-04-15T04:00:48;10.07;;;4.33;;
71771;SDS011;59606;52.138;5.424;2023-04-15T04:03:14;8.88;;;4.20;;
71771;SDS011;59606;52.138;5.424;2023-04-15T04:05:41;9.98;;;4.35;;
71771;SDS011;59606;52.138;5.424;2023-04-15T04:08:09;7.78;;;3.70;;
71771;SDS011;59606;52.138;5.424;2023-04-15T04:10:39;10.43;;;4.57;;
71771;SDS011;59606;52.138;5.424;2023-04-15T04:13:05;10.03;;;4.50;;
71771;SDS011;59606;52.138;5.424;2023-04-15T04:15:32;8.82;;;4.28;;
71771;SDS011;59606;52.138;5.424;2023-04-15T04:17:59;10.57;;;4.05;;
71771;SDS011;59606;52.138;5.424;2023-04-15T04:20:26;7.88;;;4.47;;
71771;SDS011;59606;52.138;5.424;2023-04-15T04:22:52;9.55;;;4.50;;
71771;SDS011;59606;52.138;5.424;2023-04-15T04:25:18;10.53;;;4.53;;
71771;SDS011;59606;52.138;5.424;2023-04-15T04:27:45;9.05;;;4.07;;
71771;SDS011;59606;52.138;5.424;2023-04-15T04:30:12;7.10;;;3.70;;
71771;SDS011;59606;52.138;5.424;2023-04-15T04:32:38;8.98;;;4.07;;
71771;SDS011;59606;52.138;5.424;2023-04-15T04:35:06;12.02;;;4.60;;
71771;SDS011;59606;52.138;5.424;2023-04-15T04:37:33;13.77;;;4.37;;
71771;SDS011;59606;52.138;5.424;2023-04-15T04:39:59;9.60;;;4.95;;
71771;SDS011;59606;52.138;5.424;2023-04-15T04:42:26;10.52;;;4.25;;
71771;SDS011;59606;52.138;5.424;2023-04-15T04:44:52;9.10;;;4.57;;
71771;SDS011;59606;52.138;5.424;2023-04-15T04:47:19;10.63;;;4.90;;
71771;SDS011;59606;52.138;5.424;2023-04-15T04:49:45;9.23;;;4.00;;
71771;SDS011;59606;52.138;5.424;2023-04-15T04:52:12;9.32;;;4.28;;
71771;SDS011;59606;52.138;5.424;2023-04-15T04:54:38;12.10;;;4.38;;
71771;SDS011;59606;52.138;5.424;2023-04-15T04:57:05;10.13;;;4.30;;
71771;SDS011;59606;52.138;5.424;2023-04-15T04:59:33;10.57;;;4.65;;
71771;SDS011;59606;52.138;5.424;2023-04-15T05:01:59;10.07;;;4.77;;
71771;SDS011;59606;52.138;5.424;2023-04-15T05:04:26;9.80;;;4.78;;
71771;SDS011;59606;52.138;5.424;2023-04-15T05:06:53;12.50;;;5.03;;
71771;SDS011;59606;52.138;5.424;2023-04-15T05:09:19;10.50;;;4.45;;
71771;SDS011;59606;52.138;5.424;2023-04-15T05:11:45;14.13;;;5.22;;
71771;SDS011;59606;52.138;5.424;2023-04-15T05:14:12;10.30;;;4.97;;
71771;SDS011;59606;52.138;5.424;2023-04-15T05:16:38;11.70;;;4.80;;
71771;SDS011;59606;52.138;5.424;2023-04-15T05:19:05;11.40;;;4.95;;
71771;SDS011;59606;52.138;5.424;2023-04-15T05:21:32;9.57;;;4.57;;
71771;SDS011;59606;52.138;5.424;2023-04-15T05:23:59;10.13;;;4.45;;
71771;SDS011;59606;52.138;5.424;2023-04-15T05:26:25;9.67;;;4.20;;
71771;SDS011;59606;52.138;5.424;2023-04-15T05:28:52;9.48;;;5.30;;
71771;SDS011;59606;52.138;5.424;2023-04-15T05:31:19;8.75;;;4.90;;
71771;SDS011;59606;52.138;5.424;2023-04-15T05:33:46;12.63;;;5.57;;
71771;SDS011;59606;52.138;5.424;2023-04-15T05:36:12;9.40;;;4.68;;
71771;SDS011;59606;52.138;5.424;2023-04-15T05:38:39;10.70;;;4.80;;
71771;SDS011;59606;52.138;5.424;2023-04-15T05:41:07;10.43;;;5.10;;
71771;SDS011;59606;52.138;5.424;2023-04-15T05:43:34;10.63;;;4.55;;
71771;SDS011;59606;52.138;5.424;2023-04-15T05:46:01;13.15;;;5.13;;
71771;SDS011;59606;52.138;5.424;2023-04-15T05:48:27;9.48;;;4.30;;
71771;SDS011;59606;52.138;5.424;2023-04-15T05:50:54;12.33;;;5.47;;
71771;SDS011;59606;52.138;5.424;2023-04-15T05:53:20;8.98;;;5.00;;
71771;SDS011;59606;52.138;5.424;2023-04-15T05:55:47;9.27;;;4.40;;
71771;SDS011;59606;52.138;5.424;2023-04-15T05:58:13;9.45;;;4.72;;
71771;SDS011;59606;52.138;5.424;2023-04-15T06:00:40;9.98;;;4.72;;
71771;SDS011;59606;52.138;5.424;2023-04-15T06:03:07;14.93;;;5.40;;
71771;SDS011;59606;52.138;5.424;2023-04-15T06:05:36;8.82;;;5.45;;
71771;SDS011;59606;52.138;5.424;2023-04-15T06:08:02;11.85;;;5.00;;
71771;SDS011;59606;52.138;5.424;2023-04-15T06:10:29;9.82;;;4.82;;
71771;SDS011;59606;52.138;5.424;2023-04-15T06:12:56;9.77;;;4.65;;
71771;SDS011;59606;52.138;5.424;2023-04-15T06:15:22;14.60;;;5.97;;
71771;SDS011;59606;52.138;5.424;2023-04-15T06:17:48;10.95;;;5.10;;
71771;SDS011;59606;52.138;5.424;2023-04-15T06:20:15;15.88;;;5.82;;
71771;SDS011;59606;52.138;5.424;2023-04-15T06:22:41;13.55;;;5.63;;
71771;SDS011;59606;52.138;5.424;2023-04-15T06:25:08;15.02;;;5.68;;
71771;SDS011;59606;52.138;5.424;2023-04-15T06:27:35;16.13;;;6.13;;
71771;SDS011;59606;52.138;5.424;2023-04-15T06:30:02;17.15;;;6.65;;
71771;SDS011;59606;52.138;5.424;2023-04-15T06:32:29;18.85;;;7.88;;
71771;SDS011;59606;52.138;5.424;2023-04-15T06:34:56;20.90;;;7.72;;
71771;SDS011;59606;52.138;5.424;2023-04-15T06:37:22;16.98;;;7.32;;
71771;SDS011;59606;52.138;5.424;2023-04-15T06:39:49;13.73;;;6.23;;
71771;SDS011;59606;52.138;5.424;2023-04-15T06:42:15;15.10;;;6.85;;
71771;SDS011;59606;52.138;5.424;2023-04-15T06:44:42;11.68;;;5.65;;
71771;SDS011;59606;52.138;5.424;2023-04-15T06:47:08;10.05;;;5.03;;
71771;SDS011;59606;52.138;5.424;2023-04-15T06:49:35;10.77;;;5.28;;
71771;SDS011;59606;52.138;5.424;2023-04-15T06:52:01;12.50;;;5.83;;
71771;SDS011;59606;52.138;5.424;2023-04-15T06:54:30;12.10;;;5.80;;
71771;SDS011;59606;52.138;5.424;2023-04-15T06:56:56;10.20;;;5.32;;
71771;SDS011;59606;52.138;5.424;2023-04-15T06:59:23;14.52;;;6.57;;
71771;SDS011;59606;52.138;5.424;2023-04-15T07:01:50;12.35;;;5.53;;
71771;SDS011;59606;52.138;5.424;2023-04-15T07:04:17;10.53;;;5.43;;
71771;SDS011;59606;52.138;5.424;2023-04-15T07:06:43;12.85;;;6.15;;
71771;SDS011;59606;52.138;5.424;2023-04-15T07:09:10;14.93;;;6.63;;
71771;SDS011;59606;52.138;5.424;2023-04-15T07:11:36;14.38;;;6.10;;
71771;SDS011;59606;52.138;5.424;2023-04-15T07:14:03;13.57;;;6.43;;
71771;SDS011;59606;52.138;5.424;2023-04-15T07:16:29;14.13;;;7.70;;
71771;SDS011;59606;52.138;5.424;2023-04-15T07:18:56;17.02;;;6.30;;
71771;SDS011;59606;52.138;5.424;2023-04-15T07:23:55;9.60;;;5.40;;
71771;SDS011;59606;52.138;5.424;2023-04-15T07:26:22;12.93;;;5.20;;
71771;SDS011;59606;52.138;5.424;2023-04-15T07:28:49;11.07;;;5.73;;
71771;SDS011;59606;52.138;5.424;2023-04-15T07:31:16;13.32;;;6.22;;
71771;SDS011;59606;52.138;5.424;2023-04-15T07:33:43;11.35;;;5.80;;
71771;SDS011;59606;52.138;5.424;2023-04-15T07:36:09;12.00;;;6.00;;
71771;SDS011;59606;52.138;5.424;2023-04-15T07:38:36;10.95;;;5.20;;
71771;SDS011;59606;52.138;5.424;2023-04-15T07:41:05;13.43;;;5.60;;
71771;SDS011;59606;52.138;5.424;2023-04-15T07:43:31;10.50;;;5.60;;
71771;SDS011;59606;52.138;5.424;2023-04-15T07:45:58;14.43;;;6.05;;
71771;SDS011;59606;52.138;5.424;2023-04-15T07:48:25;13.85;;;5.53;;
71771;SDS011;59606;52.138;5.424;2023-04-15T07:50:52;12.32;;;5.57;;
71771;SDS011;59606;52.138;5.424;2023-04-15T07:53:22;10.50;;;4.67;;
71771;SDS011;59606;52.138;5.424;2023-04-15T07:55:48;10.45;;;4.72;;
71771;SDS011;59606;52.138;5.424;2023-04-15T07:58:15;9.55;;;4.78;;
71771;SDS011;59606;52.138;5.424;2023-04-15T08:00:41;8.05;;;4.20;;
71771;SDS011;59606;52.138;5.424;2023-04-15T08:03:08;9.15;;;4.25;;
71771;SDS011;59606;52.138;5.424;2023-04-15T08:05:35;9.20;;;4.80;;
71771;SDS011;59606;52.138;5.424;2023-04-15T08:08:02;7.75;;;3.90;;
71771;SDS011;59606;52.138;5.424;2023-04-15T08:10:29;9.93;;;4.53;;
71771;SDS011;59606;52.138;5.424;2023-04-15T08:12:55;7.85;;;3.67;;
71771;SDS011;59606;52.138;5.424;2023-04-15T08:15:25;10.65;;;4.53;;
71771;SDS011;59606;52.138;5.424;2023-04-15T08:17:51;9.33;;;3.97;;
71771;SDS011;59606;52.138;5.424;2023-04-15T08:20:18;14.98;;;4.00;;
71771;SDS011;59606;52.138;5.424;2023-04-15T08:22:44;6.72;;;3.15;;
71771;SDS011;59606;52.138;5.424;2023-04-15T08:25:17;9.38;;;4.00;;
71771;SDS011;59606;52.138;5.424;2023-04-15T08:27:44;6.38;;;3.47;;
71771;SDS011;59606;52.138;5.424;2023-04-15T08:30:11;7.30;;;2.77;;
71771;SDS011;59606;52.138;5.424;2023-04-15T08:32:38;7.40;;;3.25;;
71771;SDS011;59606;52.138;5.424;2023-04-15T08:35:05;5.55;;;2.88;;
71771;SDS011;59606;52.138;5.424;2023-04-15T08:37:33;5.78;;;3.03;;
71771;SDS011;59606;52.138;5.424;2023-04-15T08:39:59;5.82;;;2.72;;
71771;SDS011;59606;52.138;5.424;2023-04-15T08:42:40;6.33;;;2.30;;
71771;SDS011;59606;52.138;5.424;2023-04-15T08:45:10;4.88;;;2.72;;
71771;SDS011;59606;52.138;5.424;2023-04-15T08:47:37;6.25;;;3.50;;
71771;SDS011;59606;52.138;5.424;2023-04-15T08:50:08;4.53;;;2.75;;
71771;SDS011;59606;52.138;5.424;2023-04-15T08:52:36;11.35;;;3.75;;
71771;SDS011;59606;52.138;5.424;2023-04-15T08:55:02;8.80;;;3.87;;
71771;SDS011;59606;52.138;5.424;2023-04-15T08:57:30;8.48;;;2.97;;
71771;SDS011;59606;52.138;5.424;2023-04-15T08:59:57;5.50;;;3.13;;
71771;SDS011;59606;52.138;5.424;2023-04-15T09:02:28;28.33;;;3.92;;
71771;SDS011;59606;52.138;5.424;2023-04-15T09:04:56;5.60;;;2.90;;
71771;SDS011;59606;52.138;5.424;2023-04-15T09:07:23;5.73;;;2.77;;
71771;SDS011;59606;52.138;5.424;2023-04-15T09:09:49;6.85;;;3.15;;
71771;SDS011;59606;52.138;5.424;2023-04-15T09:12:16;6.85;;;3.22;;
71771;SDS011;59606;52.138;5.424;2023-04-15T09:14:44;7.28;;;3.10;;
71771;SDS011;59606;52.138;5.424;2023-04-15T09:17:12;6.47;;;2.90;;
71771;SDS011;59606;52.138;5.424;2023-04-15T09:19:39;16.63;;;3.33;;
71771;SDS011;59606;52.138;5.424;2023-04-15T09:22:05;12.02;;;2.90;;
71771;SDS011;59606;52.138;5.424;2023-04-15T09:24:35;5.45;;;2.67;;
71771;SDS011;59606;52.138;5.424;2023-04-15T09:27:04;7.75;;;2.40;;
71771;SDS011;59606;52.138;5.424;2023-04-15T09:29:32;7.32;;;2.40;;
71771;SDS011;59606;52.138;5.424;2023-04-15T09:32:08;11.00;;;2.70;;
71771;SDS011;59606;52.138;5.424;2023-04-15T09:34:36;6.57;;;2.75;;
71771;SDS011;59606;52.138;5.424;2023-04-15T09:37:03;4.38;;;2.47;;
71771;SDS011;59606;52.138;5.424;2023-04-15T09:39:45;6.85;;;2.58;;
71771;SDS011;59606;52.138;5.424;2023-04-15T09:42:16;5.65;;;2.28;;
71771;SDS011;59606;52.138;5.424;2023-04-15T09:44:49;9.97;;;2.80;;
71771;SDS011;59606;52.138;5.424;2023-04-15T09:47:27;7.18;;;3.13;;
71771;SDS011;59606;52.138;5.424;2023-04-15T09:50:00;8.05;;;3.40;;
71771;SDS011;59606;52.138;5.424;2023-04-15T09:52:28;6.43;;;3.20;;
71771;SDS011;59606;52.138;5.424;2023-04-15T09:54:58;6.93;;;2.83;;
71771;SDS011;59606;52.138;5.424;2023-04-15T09:57:31;5.00;;;2.63;;
71771;SDS011;59606;52.138;5.424;2023-04-15T09:59:59;5.65;;;1.88;;
71771;SDS011;59606;52.138;5.424;2023-04-15T10:02:26;5.57;;;2.05;;
71771;SDS011;59606;52.138;5.424;2023-04-15T10:04:55;5.85;;;2.40;;
71771;SDS011;59606;52.138;5.424;2023-04-15T10:07:22;5.25;;;2.05;;
71771;SDS011;59606;52.138;5.424;2023-04-15T10:09:50;9.27;;;3.10;;
71771;SDS011;59606;52.138;5.424;2023-04-15T10:12:18;5.28;;;2.47;;
71771;SDS011;59606;52.138;5.424;2023-04-15T10:15:06;5.50;;;2.13;;
71771;SDS011;59606;52.138;5.424;2023-04-15T10:17:38;4.88;;;1.80;;
71771;SDS011;59606;52.138;5.424;2023-04-15T10:20:08;10.10;;;1.83;;
71771;SDS011;59606;52.138;5.424;2023-04-15T10:22:36;6.83;;;2.00;;
71771;SDS011;59606;52.138;5.424;2023-04-15T10:25:03;4.07;;;1.70;;
71771;SDS011;59606;52.138;5.424;2023-04-15T10:27:31;4.22;;;1.92;;
71771;SDS011;59606;52.138;5.424;2023-04-15T10:29:59;3.90;;;2.15;;
71771;SDS011;59606;52.138;5.424;2023-04-15T10:32:26;4.10;;;2.28;;
71771;SDS011;59606;52.138;5.424;2023-04-15T10:34:52;4.80;;;2.23;;
71771;SDS011;59606;52.138;5.424;2023-04-15T10:37:20;5.85;;;2.20;;
71771;SDS011;59606;52.138;5.424;2023-04-15T10:39:48;6.10;;;2.60;;
71771;SDS011;59606;52.138;5.424;2023-04-15T10:42:16;5.28;;;2.10;;
71771;SDS011;59606;52.138;5.424;2023-04-15T10:44:47;4.80;;;2.60;;
71771;SDS011;59606;52.138;5.424;2023-04-15T10:47:17;5.63;;;1.83;;
71771;SDS011;59606;52.138;5.424;2023-04-15T10:49:46;3.95;;;1.83;;
71771;SDS011;59606;52.138;5.424;2023-04-15T10:52:15;4.00;;;1.70;;
71771;SDS011;59606;52.138;5.424;2023-04-15T10:54:43;3.63;;;1.90;;
71771;SDS011;59606;52.138;5.424;2023-04-15T11:05:22;3.95;;;1.88;;
71771;SDS011;59606;52.138;5.424;2023-04-15T11:08:15;4.32;;;1.80;;
71771;SDS011;59606;52.138;5.424;2023-04-15T11:15:38;5.80;;;2.35;;
71771;SDS011;59606;52.138;5.424;2023-04-15T11:20:44;4.13;;;2.00;;
71771;SDS011;59606;52.138;5.424;2023-04-15T11:23:13;3.75;;;1.50;;
71771;SDS011;59606;52.138;5.424;2023-04-15T11:25:41;4.47;;;1.70;;
71771;SDS011;59606;52.138;5.424;2023-04-15T11:28:10;3.10;;;1.55;;
71771;SDS011;59606;52.138;5.424;2023-04-15T11:30:37;3.00;;;1.50;;
71771;SDS011;59606;52.138;5.424;2023-04-15T11:33:08;4.97;;;1.70;;
71771;SDS011;59606;52.138;5.424;2023-04-15T11:35:37;3.17;;;1.60;;
71771;SDS011;59606;52.138;5.424;2023-04-15T11:38:10;4.50;;;2.10;;
71771;SDS011;59606;52.138;5.424;2023-04-15T11:40:38;4.53;;;1.52;;
71771;SDS011;59606;52.138;5.424;2023-04-15T11:48:22;4.13;;;1.70;;
71771;SDS011;59606;52.138;5.424;2023-04-15T11:50:54;4.60;;;1.70;;
71771;SDS011;59606;52.138;5.424;2023-04-15T11:53:22;4.00;;;2.10;;
71771;SDS011;59606;52.138;5.424;2023-04-15T11:55:51;4.38;;;1.88;;
71771;SDS011;59606;52.138;5.424;2023-04-15T11:58:19;4.78;;;1.60;;
71771;SDS011;59606;52.138;5.424;2023-04-15T12:03:28;4.03;;;1.40;;
71771;SDS011;59606;52.138;5.424;2023-04-15T12:11:16;3.35;;;1.45;;
71771;SDS011;59606;52.138;5.424;2023-04-15T12:13:48;2.83;;;1.20;;
71771;SDS011;59606;52.138;5.424;2023-04-15T12:16:16;2.77;;;1.17;;
71771;SDS011;59606;52.138;5.424;2023-04-15T12:18:46;2.10;;;1.17;;
71771;SDS011;59606;52.138;5.424;2023-04-15T12:21:18;2.65;;;1.20;;
71771;SDS011;59606;52.138;5.424;2023-04-15T12:26:30;3.08;;;0.93;;
71771;SDS011;59606;52.138;5.424;2023-04-15T12:29:18;6.17;;;1.20;;
71771;SDS011;59606;52.138;5.424;2023-04-15T12:31:46;5.20;;;1.42;;
71771;SDS011;59606;52.138;5.424;2023-04-15T12:34:14;4.70;;;1.30;;
71771;SDS011;59606;52.138;5.424;2023-04-15T12:36:41;3.70;;;1.27;;
71771;SDS011;59606;52.138;5.424;2023-04-15T12:39:08;3.22;;;1.30;;
71771;SDS011;59606;52.138;5.424;2023-04-15T12:41:35;3.57;;;1.40;;
71771;SDS011;59606;52.138;5.424;2023-04-15T12:44:01;6.07;;;1.60;;
71771;SDS011;59606;52.138;5.424;2023-04-15T12:46:29;3.42;;;1.10;;
71771;SDS011;59606;52.138;5.424;2023-04-15T12:48:56;3.03;;;1.15;;
71771;SDS011;59606;52.138;5.424;2023-04-15T12:51:23;2.63;;;1.00;;
71771;SDS011;59606;52.138;5.424;2023-04-15T12:53:49;3.20;;;1.43;;
71771;SDS011;59606;52.138;5.424;2023-04-15T12:56:16;5.03;;;1.40;;
71771;SDS011;59606;52.138;5.424;2023-04-15T12:58:43;3.63;;;1.30;;
71771;SDS011;59606;52.138;5.424;2023-04-15T13:01:10;3.03;;;1.10;;
71771;SDS011;59606;52.138;5.424;2023-04-15T13:03:36;3.50;;;1.05;;
71771;SDS011;59606;52.138;5.424;2023-04-15T13:06:03;3.03;;;0.90;;
71771;SDS011;59606;52.138;5.424;2023-04-15T13:08:31;3.55;;;1.17;;
71771;SDS011;59606;52.138;5.424;2023-04-15T13:10:57;3.65;;;1.15;;
71771;SDS011;59606;52.138;5.424;2023-04-15T13:13:24;5.38;;;1.73;;
71771;SDS011;59606;52.138;5.424;2023-04-15T13:15:51;2.80;;;1.48;;
71771;SDS011;59606;52.138;5.424;2023-04-15T13:18:17;2.83;;;1.40;;
71771;SDS011;59606;52.138;5.424;2023-04-15T13:20:44;2.28;;;1.15;;
71771;SDS011;59606;52.138;5.424;2023-04-15T13:23:11;3.42;;;1.40;;
71771;SDS011;59606;52.138;5.424;2023-04-15T13:25:38;2.78;;;1.33;;
71771;SDS011;59606;52.138;5.424;2023-04-15T13:28:04;3.78;;;1.42;;
71771;SDS011;59606;52.138;5.424;2023-04-15T13:30:31;4.90;;;1.00;;
71771;SDS011;59606;52.138;5.424;2023-04-15T13:32:57;4.07;;;1.10;;
71771;SDS011;59606;52.138;5.424;2023-04-15T13:35:24;3.33;;;1.10;;
71771;SDS011;59606;52.138;5.424;2023-04-15T13:37:52;2.75;;;1.30;;
71771;SDS011;59606;52.138;5.424;2023-04-15T13:40:19;4.72;;;1.35;;
71771;SDS011;59606;52.138;5.424;2023-04-15T13:42:45;4.70;;;1.20;;
71771;SDS011;59606;52.138;5.424;2023-04-15T13:45:12;3.83;;;1.10;;
71771;SDS011;59606;52.138;5.424;2023-04-15T13:47:39;2.03;;;0.90;;
71771;SDS011;59606;52.138;5.424;2023-04-15T13:50:06;2.08;;;0.77;;
71771;SDS011;59606;52.138;5.424;2023-04-15T13:52:32;2.90;;;1.20;;
71771;SDS011;59606;52.138;5.424;2023-04-15T13:54:59;9.67;;;1.13;;
71771;SDS011;59606;52.138;5.424;2023-04-15T13:57:44;3.42;;;0.93;;
71771;SDS011;59606;52.138;5.424;2023-04-15T14:00:12;3.30;;;0.80;;
71771;SDS011;59606;52.138;5.424;2023-04-15T14:02:39;2.88;;;0.82;;
71771;SDS011;59606;52.138;5.424;2023-04-15T14:05:07;2.17;;;0.90;;
71771;SDS011;59606;52.138;5.424;2023-04-15T14:07:34;2.40;;;0.80;;
71771;SDS011;59606;52.138;5.424;2023-04-15T14:10:01;2.78;;;0.60;;
71771;SDS011;59606;52.138;5.424;2023-04-15T14:12:28;2.67;;;0.75;;
71771;SDS011;59606;52.138;5.424;2023-04-15T14:14:55;2.42;;;0.85;;
71771;SDS011;59606;52.138;5.424;2023-04-15T14:17:22;3.97;;;0.70;;
71771;SDS011;59606;52.138;5.424;2023-04-15T14:19:48;2.10;;;0.70;;
71771;SDS011;59606;52.138;5.424;2023-04-15T14:22:15;4.22;;;1.00;;
71771;SDS011;59606;52.138;5.424;2023-04-15T14:24:43;3.22;;;0.98;;
71771;SDS011;59606;52.138;5.424;2023-04-15T14:27:10;2.63;;;1.20;;
71771;SDS011;59606;52.138;5.424;2023-04-15T14:29:37;4.95;;;1.00;;
71771;SDS011;59606;52.138;5.424;2023-04-15T14:32:04;3.03;;;1.10;;
71771;SDS011;59606;52.138;5.424;2023-04-15T14:34:37;3.50;;;1.20;;
71771;SDS011;59606;52.138;5.424;2023-04-15T14:37:04;4.65;;;1.25;;
71771;SDS011;59606;52.138;5.424;2023-04-15T14:39:31;3.97;;;1.00;;
71771;SDS011;59606;52.138;5.424;2023-04-15T14:41:58;4.03;;;1.20;;
71771;SDS011;59606;52.138;5.424;2023-04-15T14:44:25;3.10;;;1.00;;
71771;SDS011;59606;52.138;5.424;2023-04-15T14:46:51;6.10;;;1.35;;
71771;SDS011;59606;52.138;5.424;2023-04-15T14:49:18;4.07;;;0.88;;
71771;SDS011;59606;52.138;5.424;2023-04-15T14:51:45;2.65;;;0.93;;
71771;SDS011;59606;52.138;5.424;2023-04-15T14:54:12;4.63;;;1.20;;
71771;SDS011;59606;52.138;5.424;2023-04-15T14:56:38;5.87;;;1.17;;
71771;SDS011;59606;52.138;5.424;2023-04-15T14:59:05;5.25;;;0.70;;
71771;SDS011;59606;52.138;5.424;2023-04-15T15:01:32;5.50;;;0.88;;
71771;SDS011;59606;52.138;5.424;2023-04-15T15:03:59;5.78;;;0.73;;
71771;SDS011;59606;52.138;5.424;2023-04-15T15:06:26;5.65;;;0.98;;
71771;SDS011;59606;52.138;5.424;2023-04-15T15:08:52;3.57;;;0.93;;
71771;SDS011;59606;52.138;5.424;2023-04-15T15:11:19;7.60;;;0.98;;
71771;SDS011;59606;52.138;5.424;2023-04-15T15:13:46;5.50;;;0.68;;
71771;SDS011;59606;52.138;5.424;2023-04-15T15:16:12;3.80;;;0.80;;
71771;SDS011;59606;52.138;5.424;2023-04-15T15:18:39;4.05;;;0.73;;